Time;durP1;ratioP1;P1;durP2;ratioP2;P2;SDS_P1;SDS_P2;PMS_P1;PMS_P2;Temp;Humidity;BMP_temperature;BMP_pressure;BME280_temperature;BME280_humidity;BME280_pressure;Samples;Min_cycle;Max_cycle;Signal;HPM_P1;HPM_P2
2022/11/25 00:01:05;;;;;;;1.38;0.70;;;;;;;9.85;40.94;94446.34;5118157;28;20071;-86
2022/11/25 00:03:30;;;;;;;4.30;1.20;;;;;;;9.83;40.61;94446.63;5117923;28;20027;-86
2022/11/25 00:05:56;;;;;;;2.65;0.82;;;;;;;9.95;40.83;94446.34;5099606;28;20039;-86
2022/11/25 00:08:21;;;;;;;1.83;0.80;;;;;;;9.95;41.35;94445.56;5118105;28;20035;-85
2022/11/25 00:10:46;;;;;;;1.23;0.70;;;;;;;9.93;40.66;94440.59;5099533;28;20150;-86
2022/11/25 00:13:12;;;;;;;1.23;0.75;;;;;;;9.94;40.43;94439.56;5100138;28;20133;-86
2022/11/25 00:15:37;;;;;;;1.45;0.90;;;;;;;9.95;40.04;94442.94;5117952;28;20082;-86
2022/11/25 00:18:03;;;;;;;1.83;0.75;;;;;;;10.08;39.12;94434.56;5099832;28;20035;-86
2022/11/25 00:20:28;;;;;;;1.63;0.80;;;;;;;10.06;39.34;94428.81;5099694;28;20042;-86
2022/11/25 00:22:54;;;;;;;1.77;0.88;;;;;;;10.04;39.28;94425.69;5099749;28;20114;-86
2022/11/25 00:25:19;;;;;;;1.92;1.10;;;;;;;10.07;39.13;94427.78;5082547;28;20023;-86
2022/11/25 00:27:45;;;;;;;3.25;1.08;;;;;;;10.09;39.05;94423.06;5099280;28;20047;-86
2022/11/25 00:30:10;;;;;;;2.00;0.80;;;;;;;10.04;39.08;94418.63;5099734;28;20028;-86
2022/11/25 00:32:38;;;;;;;1.70;0.82;;;;;;;10.00;39.42;94420.19;5099845;28;20035;-86
2022/11/25 00:35:04;;;;;;;1.55;0.90;;;;;;;10.04;39.55;94429.09;5117572;28;20119;-86
2022/11/25 00:37:31;;;;;;;2.83;0.90;;;;;;;10.00;39.53;94422.03;5099298;28;20054;-86
2022/11/25 00:39:56;;;;;;;2.33;0.98;;;;;;;9.72;42.08;94426.72;5117371;28;20051;-86
2022/11/25 00:45:06;;;;;;;1.40;0.80;;;;;;;9.96;38.92;94434.84;5101883;28;20351;-86
2022/11/25 00:47:31;;;;;;;3.70;0.73;;;;;;;9.99;39.50;94429.06;5117022;28;20382;-86
2022/11/25 00:49:57;;;;;;;0.50;0.50;;;;;;;9.95;39.06;94430.66;5099372;28;20046;-86
2022/11/25 00:52:26;;;;;;;1.80;0.65;;;;;;;10.00;39.40;94435.88;5117404;28;20493;-86
2022/11/25 00:54:52;;;;;;;1.15;0.70;;;;;;;10.00;38.83;94429.88;5099202;28;20055;-86
2022/11/25 00:57:19;;;;;;;3.95;0.82;;;;;;;9.71;39.73;94440.84;5082292;28;20344;-86
2022/11/25 00:59:45;;;;;;;3.20;0.50;;;;;;;9.96;39.06;94441.91;5082314;28;20028;-85
2022/11/25 01:02:11;;;;;;;4.25;0.70;;;;;;;10.02;37.59;94441.63;5098897;28;20092;-86
2022/11/25 01:04:37;;;;;;;1.45;0.70;;;;;;;10.13;37.40;94445.06;5117271;28;20081;-86
2022/11/25 01:07:02;;;;;;;1.48;0.63;;;;;;;10.27;37.16;94437.44;5100502;28;20351;-86
2022/11/25 01:09:30;;;;;;;0.93;0.50;;;;;;;10.30;37.00;94429.06;5103440;28;20042;-86
2022/11/25 01:12:04;;;;;;;0.60;0.38;;;;;;;10.32;39.29;94442.69;5103309;28;20089;-86
2022/11/25 01:14:29;;;;;;;2.28;0.80;;;;;;;10.30;39.86;94455.25;5104442;28;20385;-86
2022/11/25 01:16:55;;;;;;;0.60;0.40;;;;;;;10.19;39.27;94456.31;5121781;28;20039;-86
2022/11/25 01:19:20;;;;;;;1.63;0.60;;;;;;;10.16;37.77;94456.81;5103622;28;20032;-86
2022/11/25 01:21:46;;;;;;;0.88;0.50;;;;;;;10.35;37.30;94449.22;5086683;28;20421;-86
2022/11/25 01:24:13;;;;;;;0.85;0.52;;;;;;;10.33;38.32;94452.13;5086309;28;20028;-88
2022/11/25 01:26:39;;;;;;;0.40;0.40;;;;;;;10.52;37.90;94446.38;5086216;28;20035;-88
2022/11/25 01:29:06;;;;;;;0.98;0.45;;;;;;;10.50;37.11;94442.44;5102987;28;20385;-88
2022/11/25 01:31:35;;;;;;;0.73;0.35;;;;;;;10.68;36.95;94451.59;5086125;28;20032;-88
2022/11/25 01:34:13;;;;;;;0.43;0.43;;;;;;;10.56;40.26;94454.50;5086078;28;20076;-89
2022/11/25 01:36:39;;;;;;;0.30;0.30;;;;;;;10.50;40.22;94447.69;5086454;28;20436;-88
2022/11/25 01:39:05;;;;;;;0.80;0.50;;;;;;;10.02;40.12;94446.09;5102870;28;20060;-88
2022/11/25 01:41:32;;;;;;;1.52;0.60;;;;;;;10.01;39.78;94450.53;5085893;28;20381;-88
2022/11/25 01:44:19;;;;;;;1.50;0.57;;;;;;;10.06;41.89;94459.47;5102790;28;20027;-89
2022/11/25 01:47:22;;;;;;;0.70;0.40;;;;;;;10.08;40.11;94452.13;5085897;28;20433;-89
2022/11/25 01:50:02;;;;;;;0.70;0.40;;;;;;;10.06;39.15;94451.59;5021517;28;20079;-88
2022/11/25 01:52:37;;;;;;;1.38;0.60;;;;;;;10.25;38.26;94438.75;5079887;28;20062;-88
2022/11/25 01:55:28;;;;;;;2.50;0.60;;;;;;;10.29;37.19;94451.06;5086012;28;20409;-88
2022/11/25 01:58:01;;;;;;;0.98;0.30;;;;;;;10.40;37.22;94441.38;5102761;28;20088;-88
2022/11/25 02:00:27;;;;;;;;;;;;;;;9.90;39.46;94455.00;5101106;28;20031;-88
2022/11/25 02:02:54;;;;;;;3.85;0.40;;;;;;;10.27;38.03;94463.63;5114805;28;19919;-88
2022/11/25 02:05:23;;;;;;;2.15;0.60;;;;;;;10.30;38.36;94459.72;5096800;28;20043;-89
2022/11/25 02:07:50;;;;;;;0.75;0.40;;;;;;;10.28;38.47;94462.59;5090170;28;20309;-89
2022/11/25 02:10:20;;;;;;;0.70;0.40;;;;;;;10.25;37.49;94457.09;5096609;28;20404;-88
2022/11/25 02:12:46;;;;;;;1.20;0.35;;;;;;;10.23;37.64;94451.31;5081958;28;20077;-89
2022/11/25 02:15:13;;;;;;;0.90;0.47;;;;;;;10.95;37.16;94450.47;5065287;28;20028;-89
2022/11/25 02:17:38;;;;;;;0.50;0.40;;;;;;;11.35;36.74;94440.88;5064552;28;20400;-88
2022/11/25 02:20:07;;;;;;;1.20;0.40;;;;;;;11.51;38.81;94438.19;5081604;28;20119;-88
2022/11/25 02:22:55;;;;;;;1.38;0.65;;;;;;;11.56;38.21;94440.75;5099760;28;20111;-89
2022/11/25 02:25:26;;;;;;;1.13;0.40;;;;;;;11.82;38.65;94438.00;5081782;28;20375;-88
2022/11/25 02:28:06;;;;;;;0.47;0.40;;;;;;;11.92;39.27;94443.19;5081462;28;20124;-88
2022/11/25 02:30:32;;;;;;;2.33;0.55;;;;;;;11.89;40.80;94435.81;5081445;28;20040;-91
2022/11/25 02:32:59;;;;;;;1.38;0.30;;;;;;;11.88;41.45;94432.44;5081286;28;20114;-89
2022/11/25 02:35:29;;;;;;;4.80;0.60;;;;;;;12.19;41.37;94435.91;5065225;28;20089;-89
2022/11/25 02:38:05;;;;;;;1.98;0.40;;;;;;;12.20;42.75;94440.09;5064620;28;20425;-89
2022/11/25 02:40:33;;;;;;;2.33;0.60;;;;;;;11.88;43.48;94448.19;5064914;28;20027;-89
2022/11/25 02:42:59;;;;;;;4.05;0.60;;;;;;;11.67;45.36;94446.72;5081330;28;20077;-89
2022/11/25 02:45:38;;;;;;;1.50;0.70;;;;;;;11.95;46.02;94447.88;5064772;28;20024;-89
2022/11/25 02:48:04;;;;;;;1.45;0.45;;;;;;;11.88;45.27;94452.63;5064694;28;20345;-88
2022/11/25 02:50:29;;;;;;;2.10;0.60;;;;;;;11.78;46.66;94469.25;5081316;28;20032;-89
2022/11/25 02:52:55;;;;;;;3.70;0.63;;;;;;;11.60;47.34;94454.91;5064884;28;20094;-90
2022/11/25 02:55:20;;;;;;;4.40;0.60;;;;;;;11.77;47.63;94451.16;5064311;28;20028;-89
2022/11/25 02:57:46;;;;;;;7.50;0.80;;;;;;;12.10;47.68;94475.88;5064585;28;20081;-88
2022/11/25 03:00:11;;;;;;;3.65;0.60;;;;;;;12.19;48.73;94465.56;5080919;28;20111;-90
2022/11/25 03:02:38;;;;;;;5.75;0.77;;;;;;;12.09;49.38;94497.19;5080880;28;20095;-89
2022/11/25 03:05:04;;;;;;;3.63;0.85;;;;;;;12.28;49.58;94484.19;5081004;28;20032;-89
2022/11/25 03:07:29;;;;;;;3.08;0.77;;;;;;;12.18;49.80;94485.03;5064357;28;20382;-89
2022/11/25 03:09:54;;;;;;;2.97;0.73;;;;;;;12.28;49.79;94484.19;5080825;28;20038;-89
2022/11/25 03:12:20;;;;;;;8.00;0.70;;;;;;;12.05;49.96;94491.69;5064544;28;20035;-89
2022/11/25 03:14:46;;;;;;;3.83;1.00;;;;;;;12.17;50.35;94507.09;5081052;28;20059;-88
2022/11/25 03:17:12;;;;;;;2.92;0.75;;;;;;;12.28;50.45;94510.44;5080662;28;20032;-88
2022/11/25 03:19:38;;;;;;;2.60;0.75;;;;;;;12.44;50.14;94503.22;5080876;28;20432;-89
2022/11/25 03:22:03;;;;;;;6.97;1.17;;;;;;;12.72;49.65;94506.94;5063636;28;20031;-88
2022/11/25 03:24:29;;;;;;;3.67;1.05;;;;;;;12.24;50.84;94498.91;5064310;28;20118;-88
2022/11/25 03:26:54;;;;;;;7.88;1.10;;;;;;;12.43;50.79;94501.66;5080314;28;20068;-88
2022/11/25 03:29:20;;;;;;;6.90;0.80;;;;;;;12.64;50.78;94512.00;5080011;28;20039;-88
2022/11/25 03:31:45;;;;;;;2.97;0.80;;;;;;;12.58;50.21;94493.63;5080323;28;20039;-88
2022/11/25 03:34:11;;;;;;;5.95;0.90;;;;;;;12.34;50.93;94498.03;5063767;28;20039;-89
2022/11/25 03:36:37;;;;;;;4.45;0.85;;;;;;;12.28;51.14;94510.44;5080531;28;20028;-89
2022/11/25 03:39:02;;;;;;;2.17;0.60;;;;;;;12.11;50.98;94508.97;5080196;28;20035;-89
2022/11/25 03:41:28;;;;;;;4.15;0.90;;;;;;;12.11;51.79;94514.22;5063862;28;20031;-88
2022/11/25 03:43:53;;;;;;;2.42;0.82;;;;;;;11.96;52.34;94509.03;5080383;28;20089;-88
2022/11/25 03:46:21;;;;;;;2.47;0.80;;;;;;;12.00;52.72;94495.09;5063274;28;20060;-89
2022/11/25 03:48:46;;;;;;;2.75;0.75;;;;;;;12.14;52.62;94500.56;5063238;28;20036;-88
2022/11/25 03:51:12;;;;;;;2.75;0.60;;;;;;;12.23;52.59;94503.38;5063742;28;20024;-88
2022/11/25 03:53:37;;;;;;;4.70;0.77;;;;;;;12.42;52.30;94497.47;5063784;28;20031;-89
2022/11/25 03:56:03;;;;;;;6.85;1.75;;;;;;;12.57;52.62;94504.44;5080400;28;20028;-88
2022/11/25 03:58:31;;;;;;;7.35;1.17;;;;;;;12.37;55.19;94500.13;5097915;28;20063;-88
2022/11/25 04:01:00;;;;;;;9.70;1.40;;;;;;;11.78;49.92;94502.59;5063232;28;20047;-88
2022/11/25 04:03:27;;;;;;;2.30;0.90;;;;;;;11.62;47.37;94505.31;5063320;28;20428;-89
2022/11/25 04:05:52;;;;;;;2.13;0.77;;;;;;;11.10;46.70;94502.84;5079937;28;20032;-88
2022/11/25 04:08:18;;;;;;;2.13;0.65;;;;;;;10.79;44.03;94496.88;5062906;28;20089;-88
2022/11/25 04:10:43;;;;;;;0.90;0.50;;;;;;;10.73;43.35;94498.72;5063086;28;20336;-88
2022/11/25 04:13:08;;;;;;;1.17;0.52;;;;;;;10.26;43.95;94506.59;5063101;28;20028;-88
2022/11/25 04:15:34;;;;;;;3.35;0.77;;;;;;;10.43;45.22;94505.56;5079610;28;20031;-88
2022/11/25 04:18:01;;;;;;;2.50;0.70;;;;;;;10.41;44.23;94503.22;5079728;28;20028;-87
2022/11/25 04:20:27;;;;;;;3.42;0.73;;;;;;;10.26;45.82;94495.34;5097351;28;20148;-88
2022/11/25 04:22:52;;;;;;;1.63;0.75;;;;;;;10.52;44.91;94514.47;5079699;28;20048;-88
2022/11/25 04:25:18;;;;;;;2.92;0.70;;;;;;;10.65;45.68;94512.38;5064755;28;20130;-88
2022/11/25 04:27:43;;;;;;;3.53;0.68;;;;;;;10.58;46.13;94518.66;5083047;28;20429;-88
2022/11/25 04:30:12;;;;;;;3.58;0.70;;;;;;;10.58;46.53;94518.66;5097559;28;20039;-89
2022/11/25 04:32:40;;;;;;;4.50;0.85;;;;;;;10.50;51.17;94519.19;5088651;28;20455;-88
2022/11/25 04:35:06;;;;;;;3.83;0.88;;;;;;;10.54;52.35;94527.31;5099984;28;20359;-89
2022/11/25 04:37:33;;;;;;;8.10;0.82;;;;;;;10.46;57.83;94524.16;5082836;28;20032;-88
2022/11/25 04:40:10;;;;;;;;;;;;;;;;;;;;;
2022/11/25 04:42:39;;;;;;;6.47;0.90;;;;;;;10.06;63.50;94522.28;5100307;28;20030;-88
2022/11/25 04:45:10;;;;;;;5.18;1.27;;;;;;;10.32;65.05;94518.63;5082571;28;20062;-89
2022/11/25 04:47:37;;;;;;;2.33;0.73;;;;;;;10.29;69.26;94506.06;5082679;28;20059;-88
2022/11/25 04:50:05;;;;;;;5.25;1.00;;;;;;;10.10;74.04;94510.25;5099405;28;20031;-88
2022/11/25 04:52:30;;;;;;;4.28;0.80;;;;;;;9.95;73.00;94513.59;5116591;28;20074;-88
2022/11/25 04:54:56;;;;;;;5.07;1.05;;;;;;;9.84;74.16;94512.81;5082857;28;20058;-88
2022/11/25 04:57:24;;;;;;;3.47;0.90;;;;;;;9.82;76.40;94518.28;5082632;28;20077;-88
2022/11/25 04:59:50;;;;;;;5.05;1.00;;;;;;;10.11;74.57;94515.19;5082507;28;20122;-88
2022/11/25 05:02:23;;;;;;;7.65;0.90;;;;;;;10.31;73.77;94517.06;5099123;28;20413;-88
2022/11/25 05:04:52;;;;;;;2.63;0.60;;;;;;;10.39;73.05;94512.34;5082166;28;20036;-88
2022/11/25 05:07:18;;;;;;;5.72;1.00;;;;;;;10.57;70.29;94508.47;5099427;28;20036;-87
2022/11/25 05:09:51;;;;;;;3.40;0.80;;;;;;;10.75;68.75;94507.91;5082989;28;20076;-88
2022/11/25 05:12:19;;;;;;;3.90;1.15;;;;;;;10.60;68.38;94511.31;5099369;28;20448;-88
2022/11/25 05:14:45;;;;;;;8.50;1.20;;;;;;;10.50;66.26;94516.59;5082584;28;20027;-88
2022/11/25 05:17:19;;;;;;;3.40;0.90;;;;;;;10.55;66.73;94523.66;5098625;28;20081;-88
2022/11/25 05:19:45;;;;;;;4.38;0.80;;;;;;;10.46;65.37;94518.94;5099074;28;20344;-88
2022/11/25 05:22:11;;;;;;;4.45;1.17;;;;;;;10.38;64.22;94524.66;5098930;28;20032;-88
2022/11/25 05:24:39;;;;;;;3.67;0.93;;;;;;;10.51;62.16;94512.13;5117179;28;20038;-88
2022/11/25 05:27:08;;;;;;;7.68;1.40;;;;;;;10.61;65.20;94512.13;5098611;28;20039;-91
2022/11/25 05:29:33;;;;;;;7.00;0.98;;;;;;;10.71;65.65;94506.06;5082339;28;20034;-89
2022/11/25 05:31:59;;;;;;;4.47;0.70;;;;;;;10.88;60.85;94506.56;5098993;28;20031;-90
2022/11/25 05:34:24;;;;;;;2.53;0.68;;;;;;;10.90;59.87;94495.81;5081663;28;20486;-91
2022/11/25 05:36:50;;;;;;;3.25;0.90;;;;;;;10.77;60.82;94485.88;5098962;28;20328;-91
2022/11/25 05:39:16;;;;;;;4.50;1.00;;;;;;;10.60;60.64;94479.88;5099057;28;20031;-90
2022/11/25 05:41:42;;;;;;;6.88;1.05;;;;;;;10.45;59.55;94487.75;5081522;28;20413;-90
2022/11/25 05:44:07;;;;;;;2.83;0.70;;;;;;;10.43;57.94;94490.66;5081917;28;20329;-90
2022/11/25 05:46:32;;;;;;;5.35;0.90;;;;;;;10.50;55.39;94498.25;5082101;28;20024;-90
2022/11/25 05:48:58;;;;;;;3.45;0.68;;;;;;;10.53;54.48;94495.09;5098722;28;20032;-89
2022/11/25 05:51:24;;;;;;;2.30;0.88;;;;;;;10.63;56.10;94480.41;5116810;28;20105;-88
2022/11/25 05:53:50;;;;;;;1.45;0.50;;;;;;;10.45;55.83;94487.75;5100233;28;20112;-88
2022/11/25 05:56:19;;;;;;;1.52;0.65;;;;;;;10.46;54.66;94486.69;5109746;28;20108;-89
2022/11/25 05:58:44;;;;;;;3.22;0.80;;;;;;;10.49;55.11;94493.25;5082164;28;20028;-89
2022/11/25 06:01:11;;;;;;;5.30;0.65;;;;;;;10.54;56.20;94488.81;5082080;28;20039;-89
2022/11/25 06:03:37;;;;;;;4.20;1.00;;;;;;;10.62;55.56;94489.34;5082003;28;20039;-89
2022/11/25 06:06:04;;;;;;;1.67;0.82;;;;;;;10.55;55.58;94494.84;5065451;28;20082;-90
2022/11/25 06:08:30;;;;;;;7.22;0.90;;;;;;;10.38;55.60;94495.06;5082271;28;20060;-89
2022/11/25 06:10:55;;;;;;;3.25;0.90;;;;;;;10.45;54.36;94493.00;5081878;28;20035;-89
2022/11/25 06:13:21;;;;;;;3.45;1.25;;;;;;;10.50;54.64;94495.63;5065160;28;20429;-89
2022/11/25 06:15:46;;;;;;;4.80;0.98;;;;;;;10.51;54.71;94489.34;5082044;28;20036;-88
2022/11/25 06:18:14;;;;;;;5.43;0.85;;;;;;;10.73;54.97;94488.25;5081424;28;20055;-89
2022/11/25 06:20:39;;;;;;;3.97;0.60;;;;;;;10.85;55.17;94487.97;5081628;28;20078;-88
2022/11/25 06:23:05;;;;;;;3.67;0.73;;;;;;;10.83;55.60;94484.81;5099781;28;20111;-87
2022/11/25 06:25:31;;;;;;;4.88;0.85;;;;;;;10.67;56.39;94494.56;5099654;28;20118;-89
2022/11/25 06:27:57;;;;;;;3.35;1.17;;;;;;;10.85;56.54;94495.84;5094134;28;20045;-89
2022/11/25 06:30:25;;;;;;;2.92;0.75;;;;;;;11.00;56.37;94497.63;5101714;28;20114;-89
2022/11/25 06:32:52;;;;;;;3.33;0.90;;;;;;;11.07;57.13;94510.47;5120561;28;20122;-88
2022/11/25 06:35:17;;;;;;;3.20;0.52;;;;;;;11.21;56.50;94511.47;5101667;28;20455;-88
2022/11/25 06:37:43;;;;;;;4.47;1.17;;;;;;;11.24;55.76;94516.19;5119873;28;20028;-88
2022/11/25 06:40:08;;;;;;;2.55;0.63;;;;;;;11.24;54.63;94524.03;5119815;28;20345;-88
2022/11/25 06:42:36;;;;;;;2.70;0.80;;;;;;;11.19;55.02;94516.19;5101877;28;20046;-88
2022/11/25 06:45:02;;;;;;;4.13;0.73;;;;;;;11.15;54.76;94510.69;5101867;28;20040;-88
2022/11/25 06:47:27;;;;;;;2.17;0.80;;;;;;;11.10;55.41;94515.97;5101902;28;20062;-88
2022/11/25 06:49:52;;;;;;;3.13;0.70;;;;;;;11.01;55.84;94514.94;5119628;28;20053;-88
2022/11/25 06:52:18;;;;;;;3.42;0.70;;;;;;;10.92;56.49;94525.19;5119857;28;20042;-88
2022/11/25 06:54:44;;;;;;;1.23;0.43;;;;;;;10.88;56.99;94526.75;5101758;28;20067;-88
2022/11/25 06:57:11;;;;;;;3.88;0.90;;;;;;;10.94;57.08;94524.91;5119488;28;20103;-88
2022/11/25 06:59:36;;;;;;;4.10;0.77;;;;;;;10.82;58.68;94533.03;5084327;28;20429;-88
2022/11/25 07:02:03;;;;;;;6.28;1.10;;;;;;;10.70;59.83;94536.75;5101444;28;20039;-89
2022/11/25 07:04:29;;;;;;;4.93;1.20;;;;;;;10.72;58.58;94537.28;5100576;28;20067;-88
2022/11/25 07:06:54;;;;;;;6.93;1.33;;;;;;;10.77;58.27;94539.09;5101451;28;20085;-88
2022/11/25 07:09:21;;;;;;;4.50;1.02;;;;;;;10.98;57.57;94537.25;5119612;28;20032;-88
2022/11/25 07:11:47;;;;;;;3.53;1.10;;;;;;;11.17;57.25;94534.03;5101444;28;20114;-88
2022/11/25 07:14:14;;;;;;;3.85;0.93;;;;;;;11.12;57.08;94528.81;5101039;28;20070;-88
2022/11/25 07:16:41;;;;;;;2.65;0.70;;;;;;;11.23;57.51;94538.22;5101015;28;20428;-88
2022/11/25 07:19:07;;;;;;;3.20;0.95;;;;;;;11.25;58.46;94541.34;5100972;28;20113;-88
2022/11/25 07:21:36;;;;;;;4.00;0.85;;;;;;;11.43;58.40;94547.09;5083935;28;20438;-89
2022/11/25 07:24:04;;;;;;;3.42;0.98;;;;;;;11.64;57.27;94544.38;5119297;28;20064;-88
2022/11/25 07:26:32;;;;;;;4.65;1.10;;;;;;;11.39;60.22;94552.09;5100804;28;20043;-89
2022/11/25 07:29:00;;;;;;;3.95;1.10;;;;;;;11.45;61.95;94550.22;5101012;28;20126;-89
2022/11/25 07:31:31;;;;;;;2.13;0.80;;;;;;;11.30;62.46;94556.28;5083778;28;20043;-89
2022/11/25 07:34:01;;;;;;;4.38;0.50;;;;;;;11.60;62.61;94557.25;5100539;28;20033;-88
2022/11/25 07:36:27;;;;;;;2.67;0.80;;;;;;;11.72;62.58;94549.06;5118477;28;20084;-89
2022/11/25 07:38:53;;;;;;;3.17;0.90;;;;;;;11.76;59.95;94560.59;5118750;28;20031;-88
2022/11/25 07:41:21;;;;;;;7.55;1.27;;;;;;;11.88;60.04;94558.44;5083143;28;20027;-88
2022/11/25 07:43:49;;;;;;;5.60;1.10;;;;;;;12.04;59.77;94568.09;5100795;28;20052;-89
2022/11/25 07:46:17;;;;;;;5.90;1.02;;;;;;;12.06;59.55;94573.88;5100344;28;20036;-88
2022/11/25 07:48:44;;;;;;;3.17;0.73;;;;;;;12.05;59.62;94575.72;5100737;28;20039;-88
2022/11/25 07:51:21;;;;;;;5.25;0.82;;;;;;;12.26;62.05;94580.84;5100211;28;20065;-89
2022/11/25 07:53:47;;;;;;;1.98;0.90;;;;;;;12.20;62.60;94585.38;5100332;28;20129;-88
2022/11/25 07:56:13;;;;;;;3.22;0.85;;;;;;;12.26;62.10;94579.00;5100423;28;20027;-88
2022/11/25 07:58:40;;;;;;;2.53;0.90;;;;;;;12.21;60.36;94575.63;5100172;28;20039;-88
2022/11/25 08:01:06;;;;;;;4.38;1.13;;;;;;;12.21;59.39;94576.44;5100131;28;20039;-89
2022/11/25 08:03:33;;;;;;;7.15;1.30;;;;;;;12.11;59.47;94576.47;5118196;28;20031;-88
2022/11/25 08:06:00;;;;;;;3.67;1.00;;;;;;;12.02;60.60;94574.41;5083305;28;20032;-88
2022/11/25 08:08:25;;;;;;;6.10;1.27;;;;;;;11.73;58.50;94588.16;5118464;28;20112;-88
2022/11/25 08:10:51;;;;;;;4.18;1.23;;;;;;;11.82;59.75;94587.63;5118080;28;20125;-88
2022/11/25 08:13:17;;;;;;;3.55;1.00;;;;;;;11.69;59.26;94588.97;5118316;28;20035;-88
2022/11/25 08:15:42;;;;;;;6.75;0.95;;;;;;;11.54;67.89;94593.22;5117981;28;20023;-88
2022/11/25 08:18:07;;;;;;;3.00;1.23;;;;;;;11.55;66.31;94586.94;5100157;28;20046;-89
2022/11/25 08:20:33;;;;;;;5.35;1.20;;;;;;;12.06;63.08;94576.50;5118192;28;20040;-88
2022/11/25 08:22:59;;;;;;;4.95;1.20;;;;;;;12.34;63.97;94568.97;5117912;28;20124;-88
2022/11/25 08:25:25;;;;;;;4.30;1.00;;;;;;;12.83;61.58;94568.09;5099484;28;20035;-88
2022/11/25 08:27:50;;;;;;;3.40;1.48;;;;;;;13.19;60.55;94572.25;5118044;28;20027;-88
2022/11/25 08:30:16;;;;;;;3.35;0.80;;;;;;;13.48;60.96;94568.81;5099968;28;20489;-88
2022/11/25 08:32:42;;;;;;;3.10;1.00;;;;;;;13.61;60.41;94566.59;5118293;28;20078;-88
2022/11/25 08:35:07;;;;;;;3.65;1.20;;;;;;;13.45;57.82;94564.13;5099449;28;20459;-88
2022/11/25 08:37:33;;;;;;;3.67;1.20;;;;;;;13.70;59.88;94573.56;5099539;28;20070;-88
2022/11/25 08:39:58;;;;;;;4.43;1.70;;;;;;;13.64;59.62;94577.34;5082443;28;20035;-89
2022/11/25 08:42:24;;;;;;;4.20;1.65;;;;;;;13.27;56.68;94574.28;5082481;28;20070;-89
2022/11/25 08:44:54;;;;;;;9.50;2.13;;;;;;;13.24;61.47;94580.06;5098655;28;20046;-89
2022/11/25 08:47:20;;;;;;;4.60;1.42;;;;;;;13.41;57.26;94581.47;5099228;28;20463;-89
2022/11/25 08:49:50;;;;;;;6.20;1.60;;;;;;;13.44;58.09;94588.88;5099677;28;20055;-89
2022/11/25 08:52:15;;;;;;;5.50;1.20;;;;;;;13.46;57.15;94589.38;5099662;28;20407;-88
2022/11/25 08:54:41;;;;;;;5.28;1.40;;;;;;;13.88;55.79;94591.53;5099231;28;20047;-89
2022/11/25 08:57:06;;;;;;;11.52;1.38;;;;;;;14.06;54.66;94603.16;5099631;28;20031;-87
2022/11/25 08:59:44;;;;;;;6.80;1.30;;;;;;;14.30;56.72;94607.59;5099308;28;20352;-89
2022/11/25 09:02:11;;;;;;;5.03;1.20;;;;;;;14.26;55.60;94607.38;5099612;28;20016;-89
2022/11/25 09:04:37;;;;;;;3.67;1.00;;;;;;;14.28;56.60;94613.19;5099233;28;20032;-89
2022/11/25 09:07:03;;;;;;;4.13;1.13;;;;;;;13.98;56.94;94609.84;5116953;28;20023;-89
2022/11/25 09:09:28;;;;;;;2.67;1.10;;;;;;;14.03;55.52;94611.63;5099213;28;20027;-89
2022/11/25 09:11:54;;;;;;;6.43;1.10;;;;;;;14.04;56.71;94619.25;5098898;28;20063;-89
2022/11/25 09:14:19;;;;;;;1.77;0.70;;;;;;;14.04;56.96;94626.38;5098958;28;20027;-89
2022/11/25 09:16:45;;;;;;;5.40;1.25;;;;;;;14.12;55.65;94628.38;5117260;28;20064;-89
2022/11/25 09:19:11;;;;;;;3.80;1.10;;;;;;;13.80;55.21;94630.59;5099265;28;20020;-89
2022/11/25 09:21:36;;;;;;;4.97;1.00;;;;;;;14.13;54.11;94625.47;5099141;28;20027;-89
2022/11/25 09:24:02;;;;;;;5.60;1.13;;;;;;;14.47;53.37;94626.34;5099231;28;20458;-89
2022/11/25 09:26:30;;;;;;;2.42;0.93;;;;;;;14.67;52.65;94622.63;5099190;28;20027;-89
2022/11/25 09:28:55;;;;;;;3.40;0.98;;;;;;;14.30;51.07;94633.97;5102430;28;20035;-89
2022/11/25 09:31:22;;;;;;;4.00;0.90;;;;;;;14.66;51.87;94633.47;5102736;28;20427;-89
2022/11/25 09:33:48;;;;;;;3.42;1.10;;;;;;;14.65;51.65;94632.69;5102578;28;20027;-89
2022/11/25 09:36:15;;;;;;;5.43;1.05;;;;;;;14.63;50.86;94626.91;5102801;28;20015;-89
2022/11/25 09:38:43;;;;;;;6.13;1.25;;;;;;;14.83;50.41;94625.06;5102812;28;20313;-89
2022/11/25 09:47:24;;;;;;;5.38;1.25;;;;;;;14.25;51.22;94632.16;5120713;28;20088;-89
2022/11/25 09:50:13;;;;;;;5.03;1.15;;;;;;;14.97;49.94;94627.75;5120770;28;20432;-89
2022/11/25 09:52:38;;;;;;;3.75;1.33;;;;;;;15.08;49.96;94631.00;5102291;28;20133;-89
2022/11/25 09:55:05;;;;;;;5.93;1.17;;;;;;;15.04;49.73;94625.53;5120484;28;20110;-89
2022/11/25 09:57:33;;;;;;;5.30;1.42;;;;;;;15.54;49.53;94627.56;5102817;28;20035;-89
2022/11/25 10:00:04;;;;;;;3.72;1.08;;;;;;;15.79;49.57;94622.91;5120671;28;20035;-89
2022/11/25 10:02:54;;;;;;;2.83;1.00;;;;;;;15.67;49.50;94631.31;5120962;28;20039;-89
2022/11/25 10:05:41;;;;;;;2.95;1.10;;;;;;;15.72;49.63;94625.16;5120280;28;20062;-90
2022/11/25 10:08:21;;;;;;;6.20;1.42;;;;;;;15.29;50.55;94614.84;5119396;28;20059;-90
2022/11/25 10:11:13;;;;;;;7.93;1.80;;;;;;;15.26;49.97;94616.97;5101939;28;20023;-89
2022/11/25 10:13:59;;;;;;;6.50;1.50;;;;;;;16.13;47.82;94609.59;5080335;28;20044;-90
2022/11/25 10:16:24;;;;;;;3.95;1.40;;;;;;;15.57;50.36;94613.00;5102224;28;20035;-89
2022/11/25 10:19:15;;;;;;;3.40;1.02;;;;;;;16.15;49.43;94602.16;5120008;28;20054;-89
2022/11/25 10:21:41;;;;;;;7.25;1.75;;;;;;;16.11;51.19;94607.25;5101646;28;20126;-89
2022/11/25 10:24:13;;;;;;;2.80;1.30;;;;;;;16.15;50.74;94597.66;5101857;28;20479;-89
2022/11/25 10:26:41;;;;;;;18.85;9.85;;;;;;;16.10;50.76;94601.19;5102114;28;20359;-89
2022/11/25 10:29:13;;;;;;;4.45;1.80;;;;;;;15.96;49.93;94593.28;5084907;28;20424;-89
2022/11/25 10:31:40;;;;;;;7.72;1.75;;;;;;;15.88;50.82;94591.28;5120018;28;20043;-90
2022/11/25 10:34:36;;;;;;;9.13;1.25;;;;;;;15.60;48.68;94595.81;5101760;28;20130;-89
2022/11/25 10:37:08;;;;;;;55.53;27.30;;;;;;;15.83;50.19;94594.03;5085032;28;20047;-86
2022/11/25 10:39:34;;;;;;;38.83;19.80;;;;;;;15.59;47.08;94596.88;5084132;28;20124;-90
2022/11/25 10:42:06;;;;;;;12.70;7.13;;;;;;;15.86;47.37;94593.44;5101212;28;20063;-91
2022/11/25 10:44:36;;;;;;;9.73;3.55;;;;;;;15.75;49.28;94586.78;5101946;28;20336;-90
2022/11/25 10:47:29;;;;;;;88.80;44.33;;;;;;;15.69;48.72;94596.66;5084587;28;20031;-91
2022/11/25 10:50:16;;;;;;;21.92;11.60;;;;;;;15.74;51.39;94588.66;5119863;28;20035;-89
2022/11/25 10:52:44;;;;;;;5.45;2.40;;;;;;;16.03;51.15;94589.44;5119698;28;20031;-89
2022/11/25 10:55:39;;;;;;;3.40;1.70;;;;;;;16.16;49.70;94585.22;5119304;28;20447;-89
2022/11/25 10:58:27;;;;;;;6.72;2.92;;;;;;;16.05;49.10;94587.28;5119415;28;20031;-89
2022/11/25 11:01:22;;;;;;;6.65;2.03;;;;;;;16.10;48.87;94589.84;5119256;28;20055;-89
2022/11/25 11:03:55;;;;;;;4.10;1.20;;;;;;;15.74;48.96;94577.31;5084377;28;20092;-90
2022/11/25 11:06:30;;;;;;;3.75;1.60;;;;;;;15.41;49.20;94581.63;5100818;28;20036;-90
2022/11/25 11:09:33;;;;;;;3.75;1.50;;;;;;;15.26;50.74;94574.75;5101044;28;20428;-90
2022/11/25 11:12:26;;;;;;;3.55;1.30;;;;;;;15.49;50.45;94571.44;5033182;28;20099;-89
2022/11/25 11:15:19;;;;;;;4.47;1.75;;;;;;;15.18;51.11;94569.34;5100425;28;20432;-90
2022/11/25 11:17:45;;;;;;;9.80;4.15;;;;;;;15.03;51.26;94576.47;5100780;28;20039;-90
2022/11/25 11:20:15;;;;;;;6.88;3.67;;;;;;;14.43;54.05;94577.91;5118351;28;20052;-89
2022/11/25 11:22:47;;;;;;;8.15;1.80;;;;;;;14.40;53.05;94571.34;5100623;28;20427;-89
2022/11/25 11:25:19;;;;;;;5.63;1.70;;;;;;;13.99;54.41;94575.31;5101185;28;20119;-89
2022/11/25 11:27:45;;;;;;;3.90;1.80;;;;;;;14.26;53.63;94571.28;5119002;28;20046;-90
2022/11/25 11:30:19;;;;;;;5.05;1.65;;;;;;;14.29;54.28;94577.84;5100366;28;20039;-89
2022/11/25 11:32:58;;;;;;;4.65;1.58;;;;;;;14.49;54.80;94578.59;5100295;28;20073;-90
2022/11/25 11:35:43;;;;;;;4.00;1.90;;;;;;;13.62;56.81;94571.53;5100192;28;20027;-90
2022/11/25 11:38:23;;;;;;;3.83;1.77;;;;;;;13.11;62.65;94573.63;5117777;28;20044;-91
2022/11/25 11:40:53;;;;;;;6.47;2.28;;;;;;;12.71;75.68;94575.56;5100612;28;20448;-90
2022/11/25 11:43:46;;;;;;;7.95;2.50;;;;;;;12.91;76.58;94571.19;5083138;28;20055;-90
2022/11/25 11:46:32;;;;;;;6.23;1.90;;;;;;;12.64;81.51;94577.72;5083405;28;20042;-90
2022/11/25 11:52:31;;;;;;;5.68;2.30;;;;;;;12.04;73.94;94582.03;5118076;28;20042;-92
2022/11/25 11:55:21;;;;;;;5.03;2.47;;;;;;;11.83;84.71;94576.06;5118543;28;20122;-90